Mazy — 9HB2808 — position and weather

sailwx.info

Track history (hours):
 
Tides and Currents Weather Stations Pressure Air Temp Water Temp Dewpoint Dewpoint Depression Visibility Wind Speed Wind Dir Waves Ship Positions

Mazy

Last reported at 2015-Aug-23 13:33 UTC. Time now 2015-Sep-01 12:07 UTC.
Position N 38°21' E 023°47'.
Warning: this ship's position is 8 days out of date.

Length 39 m; draft 2.3 m.

MMSI: 229043000.

Date/timePositionNaut miles runAvg speedWind from/ knotsBaromVisibWave heightAir tempDewpointWater temp
2015-Aug-23 13:33N 38°21' E 023°47'27 2.4
2015-Aug-23 02:21N 38°02' E 024°11'4110.8
2015-Aug-22 22:33N 37°30' E 024°44'1212.5
2015-Aug-22 21:34N 37°21' E 024°55'1312.9
2015-Aug-22 20:33N 37°21' E 025°11'9 8.4
2015-Aug-22 19:31N 37°25' E 025°21'0 0.0
2015-Aug-22 18:31N 37°25' E 025°21'0 0.0
2015-Aug-22 17:31N 37°25' E 025°21'0 0.0
2015-Aug-22 16:31N 37°25' E 025°21'0 0.0
2015-Aug-22 15:31N 37°25' E 025°21'0 0.0
2015-Aug-22 14:25N 37°25' E 025°21'0 0.0
2015-Aug-22 13:31N 37°25' E 025°21'0 0.0
2015-Aug-22 12:31N 37°25' E 025°21'0 0.0
2015-Aug-22 11:31N 37°25' E 025°21'0 0.0
2015-Aug-22 10:31N 37°25' E 025°21'0 0.0
2015-Aug-22 09:31N 37°25' E 025°21'0 0.0
2015-Aug-22 08:28N 37°25' E 025°21'0 0.0
2015-Aug-22 07:31N 37°25' E 025°21'0 0.0
2015-Aug-22 06:31N 37°25' E 025°21'0 0.0
2015-Aug-22 05:31N 37°25' E 025°21'0 0.0
2015-Aug-22 04:31N 37°25' E 025°21'0 0.0
2015-Aug-22 03:31N 37°25' E 025°21'0 0.0
2015-Aug-22 02:31N 37°25' E 025°21'0 0.0
2015-Aug-22 01:31N 37°25' E 025°21'0 0.0
2015-Aug-22 00:28N 37°25' E 025°21'0 0.0
2015-Aug-21 23:31N 37°25' E 025°21'0 0.0
2015-Aug-21 22:31N 37°25' E 025°21'0 0.0
2015-Aug-21 21:31N 37°25' E 025°21'0 0.0
2015-Aug-21 20:31N 37°25' E 025°21'0 0.0
2015-Aug-21 19:31N 37°25' E 025°21'0 0.0
2015-Aug-21 18:31N 37°25' E 025°21'0 0.0
2015-Aug-21 17:31N 37°25' E 025°21'0 0.0
2015-Aug-21 16:31N 37°25' E 025°21'0 0.0
2015-Aug-21 12:28N 37°25' E 025°21'0 0.0
2015-Aug-21 11:31N 37°25' E 025°21'0 0.0
2015-Aug-21 10:31N 37°25' E 025°21'0 0.0
2015-Aug-21 09:31N 37°25' E 025°21'0 0.0
2015-Aug-21 08:28N 37°25' E 025°21'0 0.0
2015-Aug-21 07:25N 37°25' E 025°21'0 0.1
2015-Aug-21 06:31N 37°24' E 025°21'1010.1
2015-Aug-21 05:33N 37°17' E 025°28'1211.3
2015-Aug-21 04:32N 37°07' E 025°36'1010.5
2015-Aug-21 03:33N 36°57' E 025°38'0 0.2
2015-Aug-21 02:30N 36°57' E 025°37'0 0.0
2015-Aug-21 01:30N 36°57' E 025°37'0 0.0
2015-Aug-21 00:24N 36°57' E 025°37'0 0.0
2015-Aug-20 23:33N 36°57' E 025°37'0 0.0
2015-Aug-20 22:33N 36°57' E 025°37'0 0.0
2015-Aug-20 21:33N 36°57' E 025°37'0 0.0
2015-Aug-20 20:33N 36°57' E 025°37'0 0.0
2015-Aug-20 19:30N 36°57' E 025°37'0 0.0
2015-Aug-20 18:30N 36°57' E 025°37'0 0.0
2015-Aug-20 17:24N 36°57' E 025°37'0 0.0
2015-Aug-20 16:30N 36°57' E 025°37'0 0.0
2015-Aug-20 15:30N 36°57' E 025°37'0 0.0
2015-Aug-20 14:30N 36°57' E 025°37'0 0.0
2015-Aug-20 13:33N 36°57' E 025°37'0 0.0
2015-Aug-20 12:33N 36°57' E 025°37'2 1.5
2015-Aug-20 11:32N 36°56' E 025°36'0 0.3
2015-Aug-20 10:33N 36°55' E 025°36'0 0.0
2015-Aug-20 09:32N 36°55' E 025°36'0 0.0
2015-Aug-20 08:27N 36°55' E 025°36'6 6.7
2015-Aug-20 07:32N 36°54' E 025°28'2611.2
2015-Aug-20 05:13N 36°47' E 024°57'  
2015-Aug-17 15:25N 36°58' E 025°01'0 0.0
2015-Aug-17 13:19N 36°58' E 025°01'0 0.0
2015-Aug-17 12:27N 36°58' E 025°01'0 0.0
2015-Aug-17 11:20N 36°58' E 025°01'10 2.3
2015-Aug-17 07:06N 36°60' E 025°14'611.2
2015-Aug-17 06:34N 37°05' E 025°17'1211.8
2015-Aug-17 05:33N 37°17' E 025°18'1010.4
2015-Aug-17 04:33N 37°27' E 025°19'0 0.3
2015-Aug-17 03:31N 37°27' E 025°20'0 0.0
2015-Aug-17 02:28N 37°27' E 025°20'0 0.0
2015-Aug-17 01:31N 37°27' E 025°20'0 0.0
2015-Aug-17 00:28N 37°27' E 025°20'0 0.0
2015-Aug-16 23:31N 37°27' E 025°20'0 0.0
2015-Aug-16 22:31N 37°27' E 025°20'0 0.0
2015-Aug-16 21:31N 37°27' E 025°20'0 0.0
2015-Aug-16 20:31N 37°27' E 025°20'0 0.0
2015-Aug-16 19:31N 37°27' E 025°20'0 0.0
2015-Aug-16 18:28N 37°27' E 025°20'0 0.0
2015-Aug-16 17:31N 37°27' E 025°20'0 0.0
2015-Aug-16 16:31N 37°27' E 025°20'0 0.0
2015-Aug-16 15:31N 37°27' E 025°20'0 0.0
2015-Aug-16 14:33N 37°27' E 025°20'0 0.0
2015-Aug-16 13:31N 37°27' E 025°20'0 0.0
2015-Aug-16 12:31N 37°27' E 025°20'0 0.0
2015-Aug-16 11:31N 37°27' E 025°20'0 0.0
2015-Aug-16 10:31N 37°27' E 025°20'0 0.0
2015-Aug-16 09:31N 37°27' E 025°20'0 0.0
2015-Aug-16 08:31N 37°27' E 025°20'0 0.0
2015-Aug-16 07:31N 37°27' E 025°20'0 0.0
2015-Aug-16 06:31N 37°27' E 025°20'0 0.0
2015-Aug-16 05:31N 37°27' E 025°20'0 0.0
2015-Aug-16 04:31N 37°27' E 025°20'0 0.0
2015-Aug-16 03:31N 37°27' E 025°20'0 0.0
2015-Aug-16 02:31N 37°27' E 025°20'0 0.0
2015-Aug-16 01:28N 37°27' E 025°20'0 0.0
2015-Aug-16 00:31N 37°27' E 025°20'0 0.0
2015-Aug-15 23:31N 37°27' E 025°20'0 0.0
2015-Aug-15 22:31N 37°27' E 025°20'0 0.0
2015-Aug-15 21:28N 37°27' E 025°20'0 0.0
2015-Aug-15 20:31N 37°27' E 025°20'0 0.0
2015-Aug-15 19:31N 37°27' E 025°20'0 0.0
2015-Aug-15 18:31N 37°27' E 025°20'0 0.0
2015-Aug-15 17:28N 37°27' E 025°20'0 0.0
2015-Aug-15 16:31N 37°27' E 025°20'0 0.0
2015-Aug-15 15:31N 37°27' E 025°20'0 0.0
2015-Aug-15 14:31N 37°27' E 025°20'0 0.0
2015-Aug-15 13:31N 37°27' E 025°20'4 4.5
2015-Aug-15 12:33N 37°23' E 025°17'2 2.0
2015-Aug-15 11:31N 37°23' E 025°14'0 0.0
2015-Aug-15 10:31N 37°23' E 025°14'0 0.0
2015-Aug-15 09:31N 37°23' E 025°14'0 0.0
2015-Aug-15 08:31N 37°23' E 025°14'0 0.0
2015-Aug-15 07:33N 37°23' E 025°14'0 0.0
2015-Aug-15 06:33N 37°23' E 025°14'7 7.5
2015-Aug-15 05:33N 37°19' E 025°22'1211.6
2015-Aug-15 04:32N 37°14' E 025°36'1310.3
2015-Aug-15 03:15N 37°07' E 025°50'1 0.1
2015-Aug-14 15:13N 37°07' E 025°49'0 0.0
2015-Aug-14 14:27N 37°07' E 025°49'0 0.0
2015-Aug-14 13:33N 37°07' E 025°49'0 0.0
2015-Aug-14 12:33N 37°07' E 025°49'0 0.0
2015-Aug-14 11:34N 37°07' E 025°49'0 0.0
2015-Aug-14 10:24N 37°07' E 025°49'2 2.1
2015-Aug-14 09:33N 37°06' E 025°48'9 8.9
2015-Aug-14 08:33N 36°57' E 025°51'  
Track history (hours):
 
Tides and Currents Weather Stations Pressure Air Temp Water Temp Dewpoint Dewpoint Depression Visibility Wind Speed Wind Dir Waves Ship Positions

Mazy

Last reported at 2015-Aug-23 13:33 UTC. Time now 2015-Sep-01 12:07 UTC.
Position N 38°21' E 023°47'.
Warning: this ship's position is 8 days out of date.

Length 39 m; draft 2.3 m.

MMSI: 229043000.

Date/timePositionNaut miles runAvg speedWind from/ knotsBaromVisibWave heightAir tempDewpointWater temp
2015-Aug-23 13:33N 38°21' E 023°47'27 2.4
2015-Aug-23 02:21N 38°02' E 024°11'4110.8
2015-Aug-22 22:33N 37°30' E 024°44'1212.5
2015-Aug-22 21:34N 37°21' E 024°55'1312.9
2015-Aug-22 20:33N 37°21' E 025°11'9 8.4
2015-Aug-22 19:31N 37°25' E 025°21'0 0.0
2015-Aug-22 18:31N 37°25' E 025°21'0 0.0
2015-Aug-22 17:31N 37°25' E 025°21'0 0.0
2015-Aug-22 16:31N 37°25' E 025°21'0 0.0
2015-Aug-22 15:31N 37°25' E 025°21'0 0.0
2015-Aug-22 14:25N 37°25' E 025°21'0 0.0
2015-Aug-22 13:31N 37°25' E 025°21'0 0.0
2015-Aug-22 12:31N 37°25' E 025°21'0 0.0
2015-Aug-22 11:31N 37°25' E 025°21'0 0.0
2015-Aug-22 10:31N 37°25' E 025°21'0 0.0
2015-Aug-22 09:31N 37°25' E 025°21'0 0.0
2015-Aug-22 08:28N 37°25' E 025°21'0 0.0
2015-Aug-22 07:31N 37°25' E 025°21'0 0.0
2015-Aug-22 06:31N 37°25' E 025°21'0 0.0
2015-Aug-22 05:31N 37°25' E 025°21'0 0.0
2015-Aug-22 04:31N 37°25' E 025°21'0 0.0
2015-Aug-22 03:31N 37°25' E 025°21'0 0.0
2015-Aug-22 02:31N 37°25' E 025°21'0 0.0
2015-Aug-22 01:31N 37°25' E 025°21'0 0.0
2015-Aug-22 00:28N 37°25' E 025°21'0 0.0
2015-Aug-21 23:31N 37°25' E 025°21'0 0.0
2015-Aug-21 22:31N 37°25' E 025°21'0 0.0
2015-Aug-21 21:31N 37°25' E 025°21'0 0.0
2015-Aug-21 20:31N 37°25' E 025°21'0 0.0
2015-Aug-21 19:31N 37°25' E 025°21'0 0.0
2015-Aug-21 18:31N 37°25' E 025°21'0 0.0
2015-Aug-21 17:31N 37°25' E 025°21'0 0.0
2015-Aug-21 16:31N 37°25' E 025°21'0 0.0
2015-Aug-21 12:28N 37°25' E 025°21'0 0.0
2015-Aug-21 11:31N 37°25' E 025°21'0 0.0
2015-Aug-21 10:31N 37°25' E 025°21'0 0.0
2015-Aug-21 09:31N 37°25' E 025°21'0 0.0
2015-Aug-21 08:28N 37°25' E 025°21'0 0.0
2015-Aug-21 07:25N 37°25' E 025°21'0 0.1
2015-Aug-21 06:31N 37°24' E 025°21'1010.1
2015-Aug-21 05:33N 37°17' E 025°28'1211.3
2015-Aug-21 04:32N 37°07' E 025°36'1010.5
2015-Aug-21 03:33N 36°57' E 025°38'0 0.2
2015-Aug-21 02:30N 36°57' E 025°37'0 0.0
2015-Aug-21 01:30N 36°57' E 025°37'0 0.0
2015-Aug-21 00:24N 36°57' E 025°37'0 0.0
2015-Aug-20 23:33N 36°57' E 025°37'0 0.0
2015-Aug-20 22:33N 36°57' E 025°37'0 0.0
2015-Aug-20 21:33N 36°57' E 025°37'0 0.0
2015-Aug-20 20:33N 36°57' E 025°37'0 0.0
2015-Aug-20 19:30N 36°57' E 025°37'0 0.0
2015-Aug-20 18:30N 36°57' E 025°37'0 0.0
2015-Aug-20 17:24N 36°57' E 025°37'0 0.0
2015-Aug-20 16:30N 36°57' E 025°37'0 0.0
2015-Aug-20 15:30N 36°57' E 025°37'0 0.0
2015-Aug-20 14:30N 36°57' E 025°37'0 0.0
2015-Aug-20 13:33N 36°57' E 025°37'0 0.0
2015-Aug-20 12:33N 36°57' E 025°37'2 1.5
2015-Aug-20 11:32N 36°56' E 025°36'0 0.3
2015-Aug-20 10:33N 36°55' E 025°36'0 0.0
2015-Aug-20 09:32N 36°55' E 025°36'0 0.0
2015-Aug-20 08:27N 36°55' E 025°36'6 6.7
2015-Aug-20 07:32N 36°54' E 025°28'2611.2
2015-Aug-20 05:13N 36°47' E 024°57'  
2015-Aug-17 15:25N 36°58' E 025°01'0 0.0
2015-Aug-17 13:19N 36°58' E 025°01'0 0.0
2015-Aug-17 12:27N 36°58' E 025°01'0 0.0
2015-Aug-17 11:20N 36°58' E 025°01'10 2.3
2015-Aug-17 07:06N 36°60' E 025°14'611.2
2015-Aug-17 06:34N 37°05' E 025°17'1211.8
2015-Aug-17 05:33N 37°17' E 025°18'1010.4
2015-Aug-17 04:33N 37°27' E 025°19'0 0.3
2015-Aug-17 03:31N 37°27' E 025°20'0 0.0
2015-Aug-17 02:28N 37°27' E 025°20'0 0.0
2015-Aug-17 01:31N 37°27' E 025°20'0 0.0
2015-Aug-17 00:28N 37°27' E 025°20'0 0.0
2015-Aug-16 23:31N 37°27' E 025°20'0 0.0
2015-Aug-16 22:31N 37°27' E 025°20'0 0.0
2015-Aug-16 21:31N 37°27' E 025°20'0 0.0
2015-Aug-16 20:31N 37°27' E 025°20'0 0.0
2015-Aug-16 19:31N 37°27' E 025°20'0 0.0
2015-Aug-16 18:28N 37°27' E 025°20'0 0.0
2015-Aug-16 17:31N 37°27' E 025°20'0 0.0
2015-Aug-16 16:31N 37°27' E 025°20'0 0.0
2015-Aug-16 15:31N 37°27' E 025°20'0 0.0
2015-Aug-16 14:33N 37°27' E 025°20'0 0.0
2015-Aug-16 13:31N 37°27' E 025°20'0 0.0
2015-Aug-16 12:31N 37°27' E 025°20'0 0.0
2015-Aug-16 11:31N 37°27' E 025°20'0 0.0
2015-Aug-16 10:31N 37°27' E 025°20'0 0.0
2015-Aug-16 09:31N 37°27' E 025°20'0 0.0
2015-Aug-16 08:31N 37°27' E 025°20'0 0.0
2015-Aug-16 07:31N 37°27' E 025°20'0 0.0
2015-Aug-16 06:31N 37°27' E 025°20'0 0.0
2015-Aug-16 05:31N 37°27' E 025°20'0 0.0
2015-Aug-16 04:31N 37°27' E 025°20'0 0.0
2015-Aug-16 03:31N 37°27' E 025°20'0 0.0
2015-Aug-16 02:31N 37°27' E 025°20'0 0.0
2015-Aug-16 01:28N 37°27' E 025°20'0 0.0
2015-Aug-16 00:31N 37°27' E 025°20'0 0.0
2015-Aug-15 23:31N 37°27' E 025°20'0 0.0
2015-Aug-15 22:31N 37°27' E 025°20'0 0.0
2015-Aug-15 21:28N 37°27' E 025°20'0 0.0
2015-Aug-15 20:31N 37°27' E 025°20'0 0.0
2015-Aug-15 19:31N 37°27' E 025°20'0 0.0
2015-Aug-15 18:31N 37°27' E 025°20'0 0.0
2015-Aug-15 17:28N 37°27' E 025°20'0 0.0
2015-Aug-15 16:31N 37°27' E 025°20'0 0.0
2015-Aug-15 15:31N 37°27' E 025°20'0 0.0
2015-Aug-15 14:31N 37°27' E 025°20'0 0.0
2015-Aug-15 13:31N 37°27' E 025°20'4 4.5
2015-Aug-15 12:33N 37°23' E 025°17'2 2.0
2015-Aug-15 11:31N 37°23' E 025°14'0 0.0
2015-Aug-15 10:31N 37°23' E 025°14'0 0.0
2015-Aug-15 09:31N 37°23' E 025°14'0 0.0
2015-Aug-15 08:31N 37°23' E 025°14'0 0.0
2015-Aug-15 07:33N 37°23' E 025°14'0 0.0
2015-Aug-15 06:33N 37°23' E 025°14'7 7.5
2015-Aug-15 05:33N 37°19' E 025°22'1211.6
2015-Aug-15 04:32N 37°14' E 025°36'1310.3
2015-Aug-15 03:15N 37°07' E 025°50'1 0.1
2015-Aug-14 15:13N 37°07' E 025°49'0 0.0
2015-Aug-14 14:27N 37°07' E 025°49'0 0.0
2015-Aug-14 13:33N 37°07' E 025°49'0 0.0
2015-Aug-14 12:33N 37°07' E 025°49'0 0.0
2015-Aug-14 11:34N 37°07' E 025°49'0 0.0
2015-Aug-14 10:24N 37°07' E 025°49'2 2.1
2015-Aug-14 09:33N 37°06' E 025°48'9 8.9
2015-Aug-14 08:33N 36°57' E 025°51'  

Dump ship's entire track history